createdAt,value
2023-04-17T00:00:24.832Z,17.90
2023-04-17T00:01:24.820Z,16.90
2023-04-17T00:02:24.896Z,17.10
2023-04-17T00:03:24.933Z,17.10
2023-04-17T00:04:24.871Z,17.50
2023-04-17T00:05:24.773Z,16.60
2023-04-17T00:06:24.799Z,17.10
2023-04-17T00:07:24.760Z,17.10
2023-04-17T00:08:24.762Z,17.40
2023-04-17T00:09:24.729Z,16.20
2023-04-17T00:10:24.722Z,17.10
2023-04-17T00:11:24.715Z,17.00
2023-04-17T00:12:24.708Z,16.80
2023-04-17T00:13:24.721Z,16.40
2023-04-17T00:14:24.667Z,16.90
2023-04-17T00:15:24.658Z,16.80
2023-04-17T00:16:24.767Z,16.80
2023-04-17T00:17:24.668Z,16.40
2023-04-17T00:18:24.645Z,16.40
2023-04-17T00:19:24.607Z,16.30
2023-04-17T00:20:24.619Z,17.10
2023-04-17T00:21:24.591Z,15.90
2023-04-17T00:22:24.610Z,16.90
2023-04-17T00:23:24.600Z,16.80
2023-04-17T00:24:24.549Z,17.10
2023-04-17T00:25:24.588Z,17.00
2023-04-17T00:26:24.530Z,17.00
2023-04-17T00:27:24.555Z,15.60
2023-04-17T00:28:24.531Z,15.80
2023-04-17T00:29:24.497Z,16.30
2023-04-17T00:30:24.485Z,15.80
2023-04-17T00:31:24.494Z,16.20
2023-04-17T00:32:24.524Z,16.70
2023-04-17T00:33:24.486Z,16.70
2023-04-17T00:34:24.488Z,17.20
2023-04-17T00:35:24.450Z,16.70
2023-04-17T00:36:24.434Z,16.00
2023-04-17T00:37:24.434Z,15.80
2023-04-17T00:38:24.422Z,15.50
2023-04-17T00:39:24.414Z,17.60
2023-04-17T00:40:24.426Z,15.90
2023-04-17T00:41:24.374Z,16.10
2023-04-17T00:42:24.385Z,15.80
2023-04-17T00:43:24.356Z,15.60
2023-04-17T00:44:24.358Z,15.70
2023-04-17T00:45:24.371Z,16.20
2023-04-17T00:46:24.394Z,16.40
2023-04-17T00:47:24.339Z,16.10
2023-04-17T00:48:24.325Z,17.30
2023-04-17T00:49:24.317Z,16.90
2023-04-17T00:50:24.269Z,17.20
2023-04-17T00:51:24.315Z,17.90
2023-04-17T00:52:24.275Z,18.20
2023-04-17T00:53:24.273Z,18.10
2023-04-17T00:54:24.243Z,17.40
2023-04-17T00:55:24.249Z,18.50
2023-04-17T00:56:24.207Z,17.80
2023-04-17T00:57:24.212Z,16.90
2023-04-17T00:58:24.214Z,18.30
2023-04-17T00:59:24.189Z,19.30
2023-04-17T01:00:24.177Z,18.20
2023-04-17T01:01:24.193Z,18.10
2023-04-17T01:02:24.287Z,18.70
2023-04-17T01:03:24.246Z,18.20
2023-04-17T01:04:24.265Z,18.60
2023-04-17T01:05:24.123Z,18.50
2023-04-17T01:06:24.114Z,17.90
2023-04-17T01:07:24.122Z,19.10
2023-04-17T01:08:24.096Z,18.30
2023-04-17T01:09:24.078Z,20.20
2023-04-17T01:10:24.066Z,19.50
2023-04-17T01:11:24.038Z,18.60
2023-04-17T01:12:24.030Z,19.00
2023-04-17T01:13:24.056Z,18.80
2023-04-17T01:14:24.000Z,19.90
2023-04-17T01:15:23.999Z,19.20
2023-04-17T01:16:24.042Z,18.00
2023-04-17T01:17:24.025Z,18.10
2023-04-17T01:18:24.001Z,18.00
2023-04-17T01:19:23.970Z,18.10
2023-04-17T01:20:23.943Z,17.40
2023-04-17T01:21:23.961Z,17.40
2023-04-17T01:22:23.939Z,17.10
2023-04-17T01:23:23.922Z,17.20
2023-04-17T01:24:23.918Z,17.00
2023-04-17T01:25:23.908Z,17.80
2023-04-17T01:26:23.887Z,16.70
2023-04-17T01:27:23.932Z,16.30
2023-04-17T01:28:23.888Z,16.80
2023-04-17T01:29:23.845Z,15.80
2023-04-17T01:30:23.838Z,16.60
2023-04-17T01:31:24.029Z,15.60
2023-04-17T01:32:23.847Z,16.30
2023-04-17T01:33:23.835Z,15.20
2023-04-17T01:34:23.780Z,16.80
2023-04-17T01:35:23.821Z,15.30
2023-04-17T01:36:23.825Z,15.90
2023-04-17T01:37:23.816Z,15.90
2023-04-17T01:38:23.752Z,15.20
2023-04-17T01:39:23.745Z,15.90
2023-04-17T01:40:23.731Z,16.60
2023-04-17T01:41:23.722Z,16.40
2023-04-17T01:42:23.719Z,17.60
2023-04-17T01:43:23.718Z,16.10
2023-04-17T01:44:23.696Z,18.30
2023-04-17T01:45:23.687Z,18.70
2023-04-17T01:46:23.842Z,17.70
2023-04-17T01:47:23.686Z,18.20
2023-04-17T01:48:24.724Z,18.30
2023-04-17T01:49:23.649Z,17.90
2023-04-17T01:50:23.684Z,17.60
2023-04-17T01:51:23.616Z,17.70
2023-04-17T01:52:23.677Z,19.10
2023-04-17T01:53:23.593Z,18.00
2023-04-17T01:54:23.620Z,17.80
2023-04-17T01:55:23.582Z,17.80
2023-04-17T01:56:23.548Z,17.30
2023-04-17T01:57:23.539Z,17.90
2023-04-17T01:58:23.538Z,16.80
2023-04-17T01:59:23.527Z,17.30
2023-04-17T02:00:23.522Z,18.30
2023-04-17T02:01:23.580Z,17.70
2023-04-17T02:02:23.566Z,17.90
2023-04-17T02:03:23.553Z,19.50
2023-04-17T02:04:23.681Z,19.00
2023-04-17T02:05:23.477Z,18.70
2023-04-17T02:06:23.469Z,17.50
2023-04-17T02:07:23.487Z,18.50
2023-04-17T02:08:23.444Z,19.20
2023-04-17T02:09:23.409Z,18.60
2023-04-17T02:10:23.405Z,18.40
2023-04-17T02:11:23.392Z,18.70
2023-04-17T02:12:23.359Z,18.10
2023-04-17T02:13:23.412Z,18.30
2023-04-17T02:14:23.392Z,18.80
2023-04-17T02:15:23.337Z,17.70
2023-04-17T02:16:23.375Z,17.80
2023-04-17T02:17:23.386Z,16.60
2023-04-17T02:18:23.348Z,17.50
2023-04-17T02:19:23.305Z,16.70
2023-04-17T02:20:23.303Z,17.60
2023-04-17T02:21:23.286Z,17.20
2023-04-17T02:22:23.304Z,18.50
2023-04-17T02:23:23.296Z,17.10
2023-04-17T02:24:23.275Z,18.10
2023-04-17T02:25:23.228Z,17.30
2023-04-17T02:26:23.231Z,17.90
2023-04-17T02:27:23.240Z,18.90
2023-04-17T02:28:23.215Z,16.30
2023-04-17T02:29:23.259Z,17.00
2023-04-17T02:30:23.202Z,17.20
2023-04-17T02:31:23.196Z,16.60
2023-04-17T02:32:23.185Z,16.40
2023-04-17T02:33:23.194Z,17.00
2023-04-17T02:34:23.143Z,16.20
2023-04-17T02:35:23.127Z,16.10
2023-04-17T02:36:23.120Z,16.40
2023-04-17T02:37:23.103Z,16.30
2023-04-17T02:38:24.084Z,15.90
2023-04-17T02:39:23.133Z,15.80
2023-04-17T02:40:23.118Z,16.30
2023-04-17T02:41:23.073Z,16.30
2023-04-17T02:42:23.065Z,16.20
2023-04-17T02:43:23.047Z,16.20
2023-04-17T02:44:23.060Z,17.40
2023-04-17T02:45:23.030Z,17.50
2023-04-17T02:46:23.046Z,16.90
2023-04-17T02:47:23.093Z,16.60
2023-04-17T02:48:22.976Z,15.80
2023-04-17T02:49:23.020Z,15.70
2023-04-17T02:50:22.993Z,16.70
2023-04-17T02:51:22.950Z,15.90
2023-04-17T02:52:22.931Z,16.20
2023-04-17T02:53:22.946Z,16.70
2023-04-17T02:54:22.982Z,16.00
2023-04-17T02:55:22.906Z,16.00
2023-04-17T02:56:22.884Z,17.50
2023-04-17T02:57:22.898Z,15.90
2023-04-17T02:58:22.899Z,16.70
2023-04-17T02:59:22.900Z,15.50
2023-04-17T03:00:22.869Z,17.40
2023-04-17T03:01:22.880Z,16.20
2023-04-17T03:02:22.972Z,16.50
2023-04-17T03:03:22.896Z,17.30
2023-04-17T03:04:22.852Z,16.40
2023-04-17T03:05:22.797Z,15.70
2023-04-17T03:06:22.800Z,16.00
2023-04-17T03:07:22.765Z,15.50
2023-04-17T03:08:22.757Z,16.90
2023-04-17T03:09:22.784Z,15.70
2023-04-17T03:10:22.756Z,16.80
2023-04-17T03:11:22.748Z,17.20
2023-04-17T03:12:22.715Z,16.10
2023-04-17T03:13:22.711Z,16.10
2023-04-17T03:14:22.721Z,16.40
2023-04-17T03:15:22.729Z,16.10
2023-04-17T03:16:22.718Z,16.60
2023-04-17T03:17:22.700Z,16.50
2023-04-17T03:18:22.681Z,15.40
2023-04-17T03:19:22.672Z,16.60
2023-04-17T03:20:22.658Z,16.50
2023-04-17T03:21:22.636Z,16.80
2023-04-17T03:22:22.619Z,16.30
2023-04-17T03:23:22.607Z,16.20
2023-04-17T03:24:22.656Z,17.90
2023-04-17T03:25:22.613Z,17.50
2023-04-17T03:26:22.560Z,17.00
2023-04-17T03:27:22.593Z,17.90
2023-04-17T03:28:22.580Z,18.10
2023-04-17T03:29:22.579Z,18.20
2023-04-17T03:30:22.555Z,19.00
2023-04-17T03:31:24.430Z,18.20
2023-04-17T03:32:22.563Z,18.30
2023-04-17T03:33:23.200Z,18.00
2023-04-17T03:34:22.546Z,18.60
2023-04-17T03:35:22.474Z,17.70
2023-04-17T03:36:22.457Z,18.70
2023-04-17T03:37:22.457Z,18.60
2023-04-17T03:38:22.440Z,19.40
2023-04-17T03:39:22.458Z,21.00
2023-04-17T03:40:22.431Z,19.20
2023-04-17T03:41:22.402Z,18.80
2023-04-17T03:42:22.402Z,19.30
2023-04-17T03:43:22.445Z,17.80
2023-04-17T03:44:22.394Z,18.90
2023-04-17T03:45:22.367Z,17.60
2023-04-17T03:46:22.548Z,18.50
2023-04-17T03:47:22.428Z,18.10
2023-04-17T03:48:22.328Z,18.30
2023-04-17T03:49:22.364Z,18.60
2023-04-17T03:50:22.312Z,18.70
2023-04-17T03:51:22.291Z,18.60
2023-04-17T03:52:22.280Z,18.20
2023-04-17T03:53:22.277Z,19.10
2023-04-17T03:54:22.299Z,19.00
2023-04-17T03:55:22.272Z,18.60
2023-04-17T03:56:22.252Z,18.10
2023-04-17T03:57:22.242Z,18.90
2023-04-17T03:58:22.227Z,19.90
2023-04-17T03:59:22.229Z,19.60
2023-04-17T04:00:22.245Z,19.40
2023-04-17T04:01:22.191Z,19.50
2023-04-17T04:02:22.262Z,19.50
2023-04-17T04:03:22.359Z,20.40
2023-04-17T04:04:22.333Z,20.00
2023-04-17T04:05:22.249Z,19.80
2023-04-17T04:06:22.131Z,19.50
2023-04-17T04:07:22.104Z,19.70
2023-04-17T04:08:22.094Z,20.30
2023-04-17T04:09:22.135Z,19.40
2023-04-17T04:10:22.113Z,18.90
2023-04-17T04:11:22.059Z,19.60
2023-04-17T04:12:22.063Z,19.30
2023-04-17T04:13:22.032Z,19.80
2023-04-17T04:14:22.058Z,19.90
2023-04-17T04:15:22.097Z,19.80
2023-04-17T04:16:22.053Z,20.90
2023-04-17T04:17:22.001Z,20.10
2023-04-17T04:18:22.032Z,19.20
2023-04-17T04:19:21.994Z,18.40
2023-04-17T04:20:21.960Z,19.50
2023-04-17T04:21:21.990Z,19.40
2023-04-17T04:22:21.964Z,18.30
2023-04-17T04:23:21.951Z,19.20
2023-04-17T04:24:21.967Z,19.70
2023-04-17T04:25:21.918Z,20.00
2023-04-17T04:26:21.930Z,18.50
2023-04-17T04:27:21.910Z,19.70
2023-04-17T04:28:21.890Z,19.80
2023-04-17T04:29:21.912Z,19.90
2023-04-17T04:30:21.849Z,21.00
2023-04-17T04:31:22.890Z,21.10
2023-04-17T04:32:21.916Z,20.60
2023-04-17T04:33:21.860Z,19.50
2023-04-17T04:34:21.823Z,19.60
2023-04-17T04:35:21.822Z,20.40
2023-04-17T04:36:21.814Z,20.90
2023-04-17T04:37:21.799Z,20.90
2023-04-17T04:38:21.793Z,21.30
2023-04-17T04:39:21.813Z,20.80
2023-04-17T04:40:21.772Z,19.20
2023-04-17T04:41:21.739Z,21.10
2023-04-17T04:42:22.102Z,20.30
2023-04-17T04:43:22.584Z,21.00
2023-04-17T04:44:21.721Z,20.70
2023-04-17T04:45:21.730Z,21.10
2023-04-17T04:46:21.734Z,18.90
2023-04-17T04:47:21.704Z,18.90
2023-04-17T04:48:21.677Z,18.70
2023-04-17T04:49:21.704Z,20.80
2023-04-17T04:50:21.665Z,20.50
2023-04-17T04:51:21.620Z,20.20
2023-04-17T04:52:21.611Z,19.40
2023-04-17T04:53:21.615Z,20.80
2023-04-17T04:54:21.638Z,20.80
2023-04-17T04:55:21.582Z,19.60
2023-04-17T04:56:21.563Z,18.20
2023-04-17T04:57:21.590Z,18.70
2023-04-17T04:58:21.588Z,18.50
2023-04-17T04:59:21.592Z,19.00
2023-04-17T05:00:21.515Z,19.40
2023-04-17T05:01:21.661Z,19.70
2023-04-17T05:02:21.630Z,19.70
2023-04-17T05:03:21.630Z,20.10
2023-04-17T05:04:21.584Z,19.50
2023-04-17T05:05:21.506Z,20.10
2023-04-17T05:06:21.479Z,21.10
2023-04-17T05:07:21.511Z,20.00
2023-04-17T05:08:21.468Z,20.60
2023-04-17T05:09:21.446Z,20.60
2023-04-17T05:10:21.430Z,19.80
2023-04-17T05:11:21.435Z,19.30
2023-04-17T05:12:21.445Z,20.60
2023-04-17T05:13:21.427Z,18.80
2023-04-17T05:14:21.409Z,20.10
2023-04-17T05:15:21.356Z,19.50
2023-04-17T05:16:21.374Z,17.30
2023-04-17T05:17:21.435Z,19.20
2023-04-17T05:18:21.342Z,18.90
2023-04-17T05:19:21.351Z,20.00
2023-04-17T05:20:21.321Z,19.10
2023-04-17T05:21:29.800Z,19.50
2023-04-17T05:22:21.280Z,19.50
2023-04-17T05:23:21.265Z,19.30
2023-04-17T05:24:21.395Z,20.20
2023-04-17T05:25:21.244Z,19.40
2023-04-17T05:26:21.240Z,19.60
2023-04-17T05:27:21.221Z,20.20
2023-04-17T05:28:21.210Z,19.40
2023-04-17T05:29:21.215Z,18.80
2023-04-17T05:30:21.193Z,19.90
2023-04-17T05:31:21.217Z,18.00
2023-04-17T05:32:21.245Z,18.80
2023-04-17T05:33:21.171Z,18.50
2023-04-17T05:34:21.165Z,18.00
2023-04-17T05:35:21.133Z,18.80
2023-04-17T05:36:21.118Z,18.80
2023-04-17T05:37:21.122Z,19.50
2023-04-17T05:38:21.108Z,18.80
2023-04-17T05:39:21.106Z,18.20
2023-04-17T05:40:21.086Z,19.20
2023-04-17T05:41:21.071Z,20.30
2023-04-17T05:42:21.052Z,18.70
2023-04-17T05:43:21.060Z,18.90
2023-04-17T05:44:21.054Z,19.30
2023-04-17T05:45:22.234Z,20.00
2023-04-17T05:46:21.112Z,20.20
2023-04-17T05:47:21.024Z,19.10
2023-04-17T05:48:20.990Z,18.90
2023-04-17T05:49:21.008Z,19.60
2023-04-17T05:50:21.013Z,19.50
2023-04-17T05:51:20.965Z,20.30
2023-04-17T05:52:20.945Z,19.40
2023-04-17T05:53:20.934Z,22.00
2023-04-17T05:54:20.949Z,20.90
2023-04-17T05:55:20.920Z,24.50
2023-04-17T05:56:20.908Z,25.50
2023-04-17T05:57:20.901Z,25.80
2023-04-17T05:58:24.053Z,24.50
2023-04-17T05:59:20.887Z,28.80
2023-04-17T06:00:20.865Z,29.00
2023-04-17T06:01:20.862Z,30.00
2023-04-17T06:02:20.947Z,28.20
2023-04-17T06:03:21.166Z,27.50
2023-04-17T06:04:21.130Z,42.00
2023-04-17T06:05:20.871Z,46.70
2023-04-17T06:06:20.811Z,39.30
2023-04-17T06:07:20.780Z,33.20
2023-04-17T06:08:20.781Z,37.10
2023-04-17T06:09:20.781Z,31.00
2023-04-17T06:10:20.757Z,29.80
2023-04-17T06:11:20.760Z,30.20
2023-04-17T06:12:20.743Z,30.00
2023-04-17T06:13:20.747Z,31.20
2023-04-17T06:14:20.711Z,28.50
2023-04-17T06:15:20.715Z,31.30
2023-04-17T06:16:20.731Z,28.40
2023-04-17T06:17:20.710Z,29.30
2023-04-17T06:18:20.671Z,27.50
2023-04-17T06:19:20.668Z,29.00
2023-04-17T06:20:20.662Z,27.70
2023-04-17T06:21:20.636Z,25.80
2023-04-17T06:22:20.620Z,27.10
2023-04-17T06:23:20.631Z,25.50
2023-04-17T06:24:20.602Z,25.80
2023-04-17T06:25:20.610Z,27.10
2023-04-17T06:26:20.578Z,25.30
2023-04-17T06:27:20.562Z,25.60
2023-04-17T06:28:20.564Z,25.30
2023-04-17T06:29:20.567Z,25.40
2023-04-17T06:30:20.550Z,24.80
2023-04-17T06:31:20.577Z,25.20
2023-04-17T06:32:20.583Z,24.60
2023-04-17T06:33:20.511Z,24.20
2023-04-17T06:34:20.492Z,24.90
2023-04-17T06:35:20.604Z,25.60
2023-04-17T06:36:20.468Z,26.80
2023-04-17T06:37:20.492Z,23.90
2023-04-17T06:38:20.454Z,24.70
2023-04-17T06:39:20.446Z,26.50
2023-04-17T06:40:20.457Z,26.20
2023-04-17T06:41:20.421Z,27.80
2023-04-17T06:42:20.423Z,25.60
2023-04-17T06:43:20.399Z,26.30
2023-04-17T06:44:20.400Z,26.60
2023-04-17T06:45:20.392Z,26.10
2023-04-17T06:46:20.389Z,24.60
2023-04-17T06:47:20.389Z,25.10
2023-04-17T06:48:20.351Z,26.00
2023-04-17T06:49:20.341Z,25.80
2023-04-17T06:50:20.347Z,26.00
2023-04-17T06:51:20.318Z,25.40
2023-04-17T06:52:20.316Z,24.70
2023-04-17T06:53:20.291Z,24.70
2023-04-17T06:54:20.292Z,26.60
2023-04-17T06:55:20.282Z,26.30
2023-04-17T06:56:20.263Z,26.60
2023-04-17T06:57:20.277Z,26.80
2023-04-17T06:58:20.234Z,26.60
2023-04-17T06:59:20.232Z,28.50
2023-04-17T07:00:20.244Z,26.20
2023-04-17T07:01:20.271Z,26.70
2023-04-17T07:02:20.276Z,26.70
2023-04-17T07:03:20.320Z,26.90
2023-04-17T07:04:20.286Z,25.70
2023-04-17T07:05:20.189Z,27.30
2023-04-17T07:06:20.147Z,26.60
2023-04-17T07:07:20.146Z,26.40
2023-04-17T07:08:20.136Z,26.30
2023-04-17T07:09:20.115Z,25.30
2023-04-17T07:10:20.134Z,25.70
2023-04-17T07:11:20.101Z,24.90
2023-04-17T07:12:20.079Z,25.30
2023-04-17T07:13:20.069Z,25.40
2023-04-17T07:14:20.055Z,24.90
2023-04-17T07:15:20.094Z,26.40
2023-04-17T07:16:20.112Z,26.70
2023-04-17T07:17:20.063Z,25.40
2023-04-17T07:18:20.022Z,24.50
2023-04-17T07:19:19.998Z,25.50
2023-04-17T07:20:20.025Z,24.90
2023-04-17T07:21:20.005Z,26.90
2023-04-17T07:22:19.974Z,26.10
2023-04-17T07:23:19.955Z,24.20
2023-04-17T07:24:19.944Z,25.90
2023-04-17T07:25:20.066Z,26.70
2023-04-17T07:26:19.932Z,24.60
2023-04-17T07:27:19.911Z,25.60
2023-04-17T07:28:19.909Z,24.00
2023-04-17T07:29:19.886Z,23.80
2023-04-17T07:30:19.899Z,26.90
2023-04-17T07:31:20.028Z,21.90
2023-04-17T07:32:19.862Z,21.30
2023-04-17T07:33:19.842Z,21.80
2023-04-17T07:34:19.832Z,21.10
2023-04-17T07:35:19.841Z,22.20
2023-04-17T07:36:19.834Z,23.40
2023-04-17T07:37:19.849Z,21.70
2023-04-17T07:38:19.798Z,22.30
2023-04-17T07:39:19.800Z,21.80
2023-04-17T07:40:19.810Z,21.70
2023-04-17T07:41:19.765Z,21.50
2023-04-17T07:42:19.749Z,21.00
2023-04-17T07:43:19.745Z,21.00
2023-04-17T07:44:19.733Z,20.90
2023-04-17T07:45:19.732Z,21.20
2023-04-17T07:46:19.747Z,20.70
2023-04-17T07:47:19.790Z,21.00
2023-04-17T07:48:19.685Z,20.80
2023-04-17T07:49:19.668Z,21.10
2023-04-17T07:50:19.682Z,21.90
2023-04-17T07:51:19.644Z,22.10
2023-04-17T07:52:19.632Z,22.50
2023-04-17T07:53:19.631Z,22.40
2023-04-17T07:54:19.620Z,20.10
2023-04-17T07:55:19.622Z,20.30
2023-04-17T07:56:19.595Z,20.20
2023-04-17T07:57:19.596Z,20.10
2023-04-17T07:58:19.583Z,19.90
2023-04-17T07:59:19.566Z,21.50
2023-04-17T08:00:19.568Z,23.00
2023-04-17T08:01:19.545Z,19.50
2023-04-17T08:02:20.706Z,19.20
2023-04-17T08:03:19.664Z,19.20
2023-04-17T08:04:19.762Z,18.30
2023-04-17T08:05:19.565Z,17.90
2023-04-17T08:06:19.484Z,18.00
2023-04-17T08:07:19.475Z,18.70
2023-04-17T08:08:19.466Z,19.80
2023-04-17T08:09:19.456Z,23.40
2023-04-17T08:10:19.472Z,19.40
2023-04-17T08:11:19.437Z,20.60
2023-04-17T08:12:19.424Z,22.70
2023-04-17T08:13:19.407Z,20.50
2023-04-17T08:14:19.413Z,19.90
2023-04-17T08:15:19.402Z,20.20
2023-04-17T08:16:19.473Z,21.00
2023-04-17T08:17:19.418Z,19.90
2023-04-17T08:18:19.387Z,19.90
2023-04-17T08:19:19.348Z,20.70
2023-04-17T08:20:19.415Z,20.60
2023-04-17T08:21:19.327Z,21.90
2023-04-17T08:22:19.311Z,22.90
2023-04-17T08:23:19.329Z,24.10
2023-04-17T08:24:20.078Z,23.80
2023-04-17T08:25:19.287Z,24.60
2023-04-17T08:26:19.272Z,19.00
2023-04-17T08:27:19.262Z,19.10
2023-04-17T08:28:19.235Z,19.10
2023-04-17T08:29:19.255Z,21.30
2023-04-17T08:30:19.437Z,26.80
2023-04-17T08:31:19.247Z,23.00
2023-04-17T08:32:19.213Z,20.90
2023-04-17T08:33:19.189Z,20.20
2023-04-17T08:34:19.198Z,20.80
2023-04-17T08:35:19.210Z,20.80
2023-04-17T08:36:19.163Z,20.40
2023-04-17T08:37:19.163Z,19.70
2023-04-17T08:38:19.145Z,20.30
2023-04-17T08:39:19.124Z,20.40
2023-04-17T08:40:19.127Z,18.50
2023-04-17T08:41:19.100Z,19.80
2023-04-17T08:42:19.304Z,18.60
2023-04-17T08:43:19.084Z,18.20
2023-04-17T08:44:19.088Z,17.40
2023-04-17T08:45:19.091Z,16.90
2023-04-17T08:46:19.093Z,16.30
2023-04-17T08:47:19.120Z,17.60
2023-04-17T08:48:19.027Z,19.30
2023-04-17T08:49:19.012Z,17.70
2023-04-17T08:50:19.024Z,17.20
2023-04-17T08:51:18.993Z,18.70
2023-04-17T08:52:18.972Z,17.90
2023-04-17T08:53:18.975Z,19.30
2023-04-17T08:54:18.952Z,19.80
2023-04-17T08:55:18.960Z,19.90
2023-04-17T08:56:18.952Z,17.80
2023-04-17T08:57:18.933Z,17.90
2023-04-17T08:58:18.911Z,16.70
2023-04-17T08:59:18.903Z,17.00
2023-04-17T09:00:18.918Z,17.70
2023-04-17T09:01:18.947Z,19.80
2023-04-17T09:02:18.995Z,17.70
2023-04-17T09:03:19.049Z,15.80
2023-04-17T09:04:19.079Z,18.70
2023-04-17T09:05:18.855Z,24.30
2023-04-17T09:06:18.820Z,22.70
2023-04-17T09:07:18.817Z,19.20
2023-04-17T09:08:18.802Z,18.30
2023-04-17T09:09:18.788Z,18.00
2023-04-17T09:10:18.798Z,17.20
2023-04-17T09:11:18.772Z,16.40
2023-04-17T09:12:18.764Z,17.00
2023-04-17T09:13:18.753Z,17.00
2023-04-17T09:14:18.738Z,16.70
2023-04-17T09:15:18.749Z,16.90
2023-04-17T09:16:18.763Z,17.60
2023-04-17T09:17:18.740Z,16.40
2023-04-17T09:18:18.747Z,16.30
2023-04-17T09:19:18.691Z,16.10
2023-04-17T09:20:18.696Z,16.20
2023-04-17T09:21:18.749Z,17.20
2023-04-17T09:22:18.670Z,16.90
2023-04-17T09:23:18.640Z,16.90
2023-04-17T09:24:18.642Z,17.00
2023-04-17T09:25:18.689Z,16.40
2023-04-17T09:26:18.605Z,16.30
2023-04-17T09:27:18.609Z,16.90
2023-04-17T09:28:18.596Z,15.80
2023-04-17T09:29:18.601Z,15.80
2023-04-17T09:30:18.587Z,15.30
2023-04-17T09:31:18.638Z,15.70
2023-04-17T09:32:18.537Z,15.70
2023-04-17T09:33:18.530Z,15.80
2023-04-17T09:34:18.529Z,15.50
2023-04-17T09:35:18.538Z,15.80
2023-04-17T09:36:19.808Z,15.30
2023-04-17T09:37:18.494Z,14.40
2023-04-17T09:38:18.482Z,16.00
2023-04-17T09:39:18.480Z,15.20
2023-04-17T09:40:18.583Z,15.50
2023-04-17T09:41:18.449Z,14.50
2023-04-17T09:42:18.440Z,15.10
2023-04-17T09:43:18.432Z,15.20
2023-04-17T09:44:19.140Z,13.90
2023-04-17T09:45:18.424Z,14.00
2023-04-17T09:46:18.413Z,13.70
2023-04-17T09:47:18.453Z,14.10
2023-04-17T09:48:18.369Z,13.70
2023-04-17T09:49:18.361Z,14.20
2023-04-17T09:50:18.408Z,14.30
2023-04-17T09:51:18.332Z,14.60
2023-04-17T09:52:18.333Z,13.40
2023-04-17T09:53:18.317Z,13.20
2023-04-17T09:54:18.408Z,12.90
2023-04-17T09:55:18.352Z,12.50
2023-04-17T09:56:18.280Z,12.00
2023-04-17T09:57:18.266Z,11.90
2023-04-17T09:58:18.291Z,11.90
2023-04-17T09:59:18.238Z,11.00
2023-04-17T10:00:18.294Z,11.30
2023-04-17T10:01:18.235Z,11.20
2023-04-17T10:02:18.371Z,11.50
2023-04-17T10:03:18.425Z,12.00
2023-04-17T10:04:18.595Z,11.40
2023-04-17T10:05:18.190Z,12.00
2023-04-17T10:06:18.176Z,11.40
2023-04-17T10:07:18.163Z,11.10
2023-04-17T10:08:18.146Z,10.80
2023-04-17T10:09:18.131Z,10.90
2023-04-17T10:10:18.133Z,10.30
2023-04-17T10:11:18.104Z,10.20
2023-04-17T10:12:18.102Z,11.20
2023-04-17T10:13:18.081Z,10.40
2023-04-17T10:14:18.089Z,10.60
2023-04-17T10:15:18.088Z,9.90
2023-04-17T10:16:18.108Z,9.30
2023-04-17T10:17:18.040Z,9.70
2023-04-17T10:18:18.034Z,9.70
2023-04-17T10:19:18.015Z,9.70
2023-04-17T10:20:18.121Z,10.30
2023-04-17T10:21:18.001Z,9.00
2023-04-17T10:22:17.989Z,9.20
2023-04-17T10:23:17.970Z,9.50
2023-04-17T10:24:17.968Z,8.90
2023-04-17T10:25:17.961Z,9.70
2023-04-17T10:26:18.201Z,10.00
2023-04-17T10:27:17.932Z,8.80
2023-04-17T10:28:17.964Z,9.00
2023-04-17T10:29:17.942Z,8.90
2023-04-17T10:30:17.917Z,9.60
2023-04-17T10:31:17.926Z,8.60
2023-04-17T10:32:18.036Z,8.50
2023-04-17T10:33:17.940Z,9.20
2023-04-17T10:34:17.857Z,8.80
2023-04-17T10:35:17.867Z,8.90
2023-04-17T10:36:17.832Z,8.90
2023-04-17T10:37:17.834Z,9.00
2023-04-17T10:38:17.826Z,8.90
2023-04-17T10:39:17.803Z,10.00
2023-04-17T10:40:17.808Z,9.60
2023-04-17T10:41:17.783Z,9.60
2023-04-17T10:42:17.772Z,8.40
2023-04-17T10:43:17.788Z,8.50
2023-04-17T10:44:17.757Z,8.40
2023-04-17T10:45:17.747Z,8.20
2023-04-17T10:46:17.788Z,7.80
2023-04-17T10:47:17.725Z,7.90
2023-04-17T10:48:17.777Z,7.90
2023-04-17T10:49:17.694Z,7.60
2023-04-17T10:50:17.705Z,8.10
2023-04-17T10:51:17.670Z,8.10
2023-04-17T10:52:17.678Z,8.80
2023-04-17T10:53:17.659Z,8.80
2023-04-17T10:54:17.635Z,8.20
2023-04-17T10:55:17.664Z,8.30
2023-04-17T10:56:17.630Z,8.60
2023-04-17T10:57:17.709Z,8.70
2023-04-17T10:58:17.592Z,9.00
2023-04-17T10:59:17.581Z,8.60
2023-04-17T11:00:17.569Z,8.20
2023-04-17T11:01:17.646Z,8.00
2023-04-17T11:02:17.577Z,7.70
2023-04-17T11:03:17.730Z,8.30
2023-04-17T11:04:17.591Z,8.40
2023-04-17T11:05:17.507Z,8.30
2023-04-17T11:06:17.524Z,7.70
2023-04-17T11:07:17.492Z,7.70
2023-04-17T11:08:17.485Z,6.90
2023-04-17T11:09:17.587Z,8.10
2023-04-17T11:10:17.461Z,8.30
2023-04-17T11:11:23.532Z,7.70
2023-04-17T11:12:17.449Z,7.90
2023-04-17T11:13:17.423Z,8.20
2023-04-17T11:14:17.424Z,9.00
2023-04-17T11:15:17.415Z,9.20
2023-04-17T11:16:17.454Z,8.20
2023-04-17T11:17:17.483Z,7.20
2023-04-17T11:18:17.385Z,7.00
2023-04-17T11:19:17.361Z,6.70
2023-04-17T11:20:17.425Z,6.70
2023-04-17T11:21:25.342Z,6.40
2023-04-17T11:22:17.332Z,6.70
2023-04-17T11:23:17.377Z,6.90
2023-04-17T11:24:17.366Z,7.10
2023-04-17T11:25:17.391Z,7.00
2023-04-17T11:26:17.397Z,6.80
2023-04-17T11:27:17.309Z,7.10
2023-04-17T11:28:17.384Z,7.00
2023-04-17T11:29:17.272Z,7.50
2023-04-17T11:30:17.254Z,6.70
2023-04-17T11:31:19.438Z,8.20
2023-04-17T11:32:17.237Z,8.00
2023-04-17T11:33:17.205Z,8.10
2023-04-17T11:34:17.823Z,8.20
2023-04-17T11:35:17.211Z,8.10
2023-04-17T11:36:17.195Z,8.30
2023-04-17T11:37:17.181Z,8.70
2023-04-17T11:38:17.167Z,9.10
2023-04-17T11:39:17.141Z,8.90
2023-04-17T11:40:17.145Z,8.80
2023-04-17T11:41:17.195Z,8.90
2023-04-17T11:42:17.115Z,9.30
2023-04-17T11:43:17.108Z,9.10
2023-04-17T11:44:17.096Z,8.90
2023-04-17T11:45:17.096Z,8.40
2023-04-17T11:46:17.112Z,8.20
2023-04-17T11:47:17.078Z,7.80
2023-04-17T11:48:17.051Z,8.20
2023-04-17T11:49:17.067Z,8.20
2023-04-17T11:50:17.037Z,8.30
2023-04-17T11:51:17.036Z,8.90
2023-04-17T11:52:18.054Z,9.10
2023-04-17T11:53:17.016Z,8.90
2023-04-17T11:54:17.001Z,7.90
2023-04-17T11:55:16.965Z,8.10
2023-04-17T11:56:17.003Z,8.60
2023-04-17T11:57:16.952Z,8.40
2023-04-17T11:58:16.977Z,8.80
2023-04-17T11:59:16.950Z,8.90
2023-04-17T12:00:16.926Z,7.50
2023-04-17T12:01:16.969Z,8.80
2023-04-17T12:02:17.104Z,8.60
2023-04-17T12:03:17.829Z,8.30
2023-04-17T12:04:17.302Z,8.50
2023-04-17T12:05:16.923Z,8.50
2023-04-17T12:06:16.874Z,8.20
2023-04-17T12:07:16.856Z,7.40
2023-04-17T12:08:16.837Z,7.80
2023-04-17T12:09:16.848Z,6.60
2023-04-17T12:10:16.839Z,7.20
2023-04-17T12:11:16.877Z,7.60
2023-04-17T12:12:16.788Z,8.00
2023-04-17T12:13:16.788Z,7.80
2023-04-17T12:14:16.769Z,8.00
2023-04-17T12:15:16.785Z,8.60
2023-04-17T12:16:16.840Z,7.80
2023-04-17T12:17:16.739Z,7.70
2023-04-17T12:18:16.725Z,7.20
2023-04-17T12:19:16.781Z,7.90
2023-04-17T12:20:16.704Z,7.80
2023-04-17T12:21:16.706Z,8.20
2023-04-17T12:22:16.731Z,6.60
2023-04-17T12:23:16.676Z,6.60
2023-04-17T12:24:16.658Z,6.50
2023-04-17T12:25:16.649Z,6.80
2023-04-17T12:26:16.660Z,6.70
2023-04-17T12:27:16.629Z,7.00
2023-04-17T12:28:16.626Z,6.70
2023-04-17T12:29:16.597Z,6.80
2023-04-17T12:30:16.612Z,7.00
2023-04-17T12:31:16.619Z,6.50
2023-04-17T12:32:16.582Z,6.50
2023-04-17T12:33:16.569Z,6.00
2023-04-17T12:34:16.554Z,6.50
2023-04-17T12:35:16.542Z,6.50
2023-04-17T12:36:16.615Z,7.10
2023-04-17T12:37:16.541Z,6.30
2023-04-17T12:38:16.508Z,6.10
2023-04-17T12:39:16.503Z,5.80
2023-04-17T12:40:16.488Z,5.70
2023-04-17T12:41:16.503Z,5.80
2023-04-17T12:42:16.462Z,5.50
2023-04-17T12:43:16.490Z,6.00
2023-04-17T12:44:16.457Z,6.10
2023-04-17T12:45:16.555Z,6.30
2023-04-17T12:46:16.473Z,6.80
2023-04-17T12:47:16.431Z,6.50
2023-04-17T12:48:16.402Z,6.00
2023-04-17T12:49:16.391Z,6.60
2023-04-17T12:50:16.377Z,6.90
2023-04-17T12:51:16.397Z,6.60
2023-04-17T12:52:16.354Z,6.60
2023-04-17T12:53:16.336Z,6.10
2023-04-17T12:54:16.337Z,6.70
2023-04-17T12:55:16.329Z,6.90
2023-04-17T12:56:16.331Z,7.20
2023-04-17T12:57:16.307Z,7.20